sensor_id;sensor_type;location;lat;lon;timestamp;P1;durP1;ratioP1;P2;durP2;ratioP2
79015;SDS011;72726;44.842;37.556;2024-03-02T00:00:00;12.75;;;5.75;;
79015;SDS011;72726;44.842;37.556;2024-03-02T00:01:13;15.90;;;5.75;;
79015;SDS011;72726;44.842;37.556;2024-03-02T00:02:14;13.75;;;6.35;;
79015;SDS011;72726;44.842;37.556;2024-03-02T00:03:16;13.27;;;5.88;;
79015;SDS011;72726;44.842;37.556;2024-03-02T00:04:17;12.27;;;5.80;;
79015;SDS011;72726;44.842;37.556;2024-03-02T00:05:20;12.80;;;5.82;;
79015;SDS011;72726;44.842;37.556;2024-03-02T00:06:23;12.15;;;5.90;;
79015;SDS011;72726;44.842;37.556;2024-03-02T00:07:24;12.23;;;5.50;;
79015;SDS011;72726;44.842;37.556;2024-03-02T00:08:25;11.45;;;5.43;;
79015;SDS011;72726;44.842;37.556;2024-03-02T00:09:27;20.23;;;5.65;;
79015;SDS011;72726;44.842;37.556;2024-03-02T00:10:37;17.67;;;5.68;;
79015;SDS011;72726;44.842;37.556;2024-03-02T00:11:42;16.77;;;5.70;;
79015;SDS011;72726;44.842;37.556;2024-03-02T00:12:45;14.57;;;6.22;;
79015;SDS011;72726;44.842;37.556;2024-03-02T00:13:48;13.88;;;5.72;;
79015;SDS011;72726;44.842;37.556;2024-03-02T00:14:49;24.38;;;5.88;;
79015;SDS011;72726;44.842;37.556;2024-03-02T00:16:54;17.65;;;5.45;;
79015;SDS011;72726;44.842;37.556;2024-03-02T00:17:57;13.27;;;5.10;;
79015;SDS011;72726;44.842;37.556;2024-03-02T00:19:05;13.65;;;5.03;;
79015;SDS011;72726;44.842;37.556;2024-03-02T00:20:08;12.57;;;5.53;;
79015;SDS011;72726;44.842;37.556;2024-03-02T00:21:10;12.20;;;5.13;;
79015;SDS011;72726;44.842;37.556;2024-03-02T00:22:14;14.98;;;5.35;;
79015;SDS011;72726;44.842;37.556;2024-03-02T00:23:16;11.00;;;5.30;;
79015;SDS011;72726;44.842;37.556;2024-03-02T00:24:26;12.95;;;5.22;;
79015;SDS011;72726;44.842;37.556;2024-03-02T00:25:40;12.32;;;5.05;;
79015;SDS011;72726;44.842;37.556;2024-03-02T00:27:03;10.45;;;4.93;;
79015;SDS011;72726;44.842;37.556;2024-03-02T00:28:05;11.82;;;5.38;;
79015;SDS011;72726;44.842;37.556;2024-03-02T00:29:09;12.85;;;5.88;;
79015;SDS011;72726;44.842;37.556;2024-03-02T00:31:43;11.98;;;4.95;;
79015;SDS011;72726;44.842;37.556;2024-03-02T00:32:44;12.63;;;5.55;;
79015;SDS011;72726;44.842;37.556;2024-03-02T00:33:46;12.30;;;5.75;;
79015;SDS011;72726;44.842;37.556;2024-03-02T00:34:48;11.70;;;5.80;;
79015;SDS011;72726;44.842;37.556;2024-03-02T00:35:50;12.65;;;5.40;;
79015;SDS011;72726;44.842;37.556;2024-03-02T00:36:51;11.57;;;5.72;;
79015;SDS011;72726;44.842;37.556;2024-03-02T00:37:54;15.75;;;5.63;;
79015;SDS011;72726;44.842;37.556;2024-03-02T00:38:55;11.27;;;5.30;;
79015;SDS011;72726;44.842;37.556;2024-03-02T00:39:57;19.05;;;5.38;;
79015;SDS011;72726;44.842;37.556;2024-03-02T00:40:59;12.38;;;5.38;;
79015;SDS011;72726;44.842;37.556;2024-03-02T00:42:05;14.73;;;5.13;;
79015;SDS011;72726;44.842;37.556;2024-03-02T00:43:06;11.98;;;5.90;;
79015;SDS011;72726;44.842;37.556;2024-03-02T00:44:28;11.52;;;5.70;;
79015;SDS011;72726;44.842;37.556;2024-03-02T00:45:36;11.30;;;6.15;;
79015;SDS011;72726;44.842;37.556;2024-03-02T00:46:41;13.70;;;5.85;;
79015;SDS011;72726;44.842;37.556;2024-03-02T00:47:44;13.52;;;5.38;;
79015;SDS011;72726;44.842;37.556;2024-03-02T00:48:55;10.98;;;5.32;;
79015;SDS011;72726;44.842;37.556;2024-03-02T00:49:57;12.40;;;5.63;;
79015;SDS011;72726;44.842;37.556;2024-03-02T00:50:59;10.45;;;5.00;;
79015;SDS011;72726;44.842;37.556;2024-03-02T00:52:00;11.27;;;5.53;;
79015;SDS011;72726;44.842;37.556;2024-03-02T00:53:01;12.75;;;5.32;;
79015;SDS011;72726;44.842;37.556;2024-03-02T00:54:04;11.77;;;4.65;;
79015;SDS011;72726;44.842;37.556;2024-03-02T00:55:07;13.45;;;5.35;;
79015;SDS011;72726;44.842;37.556;2024-03-02T00:56:09;12.80;;;4.75;;
79015;SDS011;72726;44.842;37.556;2024-03-02T00:57:12;11.20;;;5.38;;
79015;SDS011;72726;44.842;37.556;2024-03-02T00:58:14;13.07;;;5.57;;
79015;SDS011;72726;44.842;37.556;2024-03-02T00:59:19;10.25;;;5.00;;
79015;SDS011;72726;44.842;37.556;2024-03-02T01:00:21;10.02;;;5.10;;
79015;SDS011;72726;44.842;37.556;2024-03-02T01:01:22;10.30;;;4.80;;
79015;SDS011;72726;44.842;37.556;2024-03-02T01:02:23;10.68;;;4.95;;
79015;SDS011;72726;44.842;37.556;2024-03-02T01:03:25;9.48;;;4.80;;
79015;SDS011;72726;44.842;37.556;2024-03-02T01:04:26;11.43;;;4.43;;
79015;SDS011;72726;44.842;37.556;2024-03-02T01:05:27;9.63;;;5.00;;
79015;SDS011;72726;44.842;37.556;2024-03-02T01:06:29;10.82;;;5.15;;
79015;SDS011;72726;44.842;37.556;2024-03-02T01:07:31;12.40;;;5.72;;
79015;SDS011;72726;44.842;37.556;2024-03-02T01:08:33;10.93;;;5.68;;
79015;SDS011;72726;44.842;37.556;2024-03-02T01:09:35;15.88;;;5.65;;
79015;SDS011;72726;44.842;37.556;2024-03-02T01:10:36;13.32;;;5.38;;
79015;SDS011;72726;44.842;37.556;2024-03-02T01:11:38;14.70;;;6.13;;
79015;SDS011;72726;44.842;37.556;2024-03-02T01:12:39;13.35;;;5.97;;
79015;SDS011;72726;44.842;37.556;2024-03-02T01:13:40;11.80;;;5.53;;
79015;SDS011;72726;44.842;37.556;2024-03-02T01:14:41;14.20;;;6.22;;
79015;SDS011;72726;44.842;37.556;2024-03-02T01:15:43;17.80;;;6.88;;
79015;SDS011;72726;44.842;37.556;2024-03-02T01:16:44;13.68;;;6.47;;
79015;SDS011;72726;44.842;37.556;2024-03-02T01:17:45;15.05;;;6.55;;
79015;SDS011;72726;44.842;37.556;2024-03-02T01:18:47;13.15;;;6.75;;
79015;SDS011;72726;44.842;37.556;2024-03-02T01:19:48;14.35;;;6.53;;
79015;SDS011;72726;44.842;37.556;2024-03-02T01:20:49;15.35;;;7.10;;
79015;SDS011;72726;44.842;37.556;2024-03-02T01:21:56;19.25;;;6.82;;
79015;SDS011;72726;44.842;37.556;2024-03-02T01:22:57;13.88;;;6.40;;
79015;SDS011;72726;44.842;37.556;2024-03-02T01:23:59;12.25;;;5.70;;
79015;SDS011;72726;44.842;37.556;2024-03-02T01:25:00;16.48;;;6.10;;
79015;SDS011;72726;44.842;37.556;2024-03-02T01:26:01;13.57;;;6.35;;
79015;SDS011;72726;44.842;37.556;2024-03-02T01:27:03;14.60;;;5.82;;
79015;SDS011;72726;44.842;37.556;2024-03-02T01:28:04;13.85;;;6.78;;
79015;SDS011;72726;44.842;37.556;2024-03-02T01:29:06;13.88;;;6.53;;
79015;SDS011;72726;44.842;37.556;2024-03-02T01:30:07;14.25;;;6.07;;
79015;SDS011;72726;44.842;37.556;2024-03-02T01:31:09;12.30;;;5.65;;
79015;SDS011;72726;44.842;37.556;2024-03-02T01:32:10;14.00;;;6.35;;
79015;SDS011;72726;44.842;37.556;2024-03-02T01:33:12;12.02;;;5.55;;
79015;SDS011;72726;44.842;37.556;2024-03-02T01:34:14;11.80;;;5.40;;
79015;SDS011;72726;44.842;37.556;2024-03-02T01:35:15;11.23;;;5.50;;
79015;SDS011;72726;44.842;37.556;2024-03-02T01:36:19;10.10;;;5.25;;
79015;SDS011;72726;44.842;37.556;2024-03-02T01:37:20;14.13;;;5.22;;
79015;SDS011;72726;44.842;37.556;2024-03-02T01:38:21;14.05;;;5.82;;
79015;SDS011;72726;44.842;37.556;2024-03-02T01:39:23;14.15;;;5.53;;
79015;SDS011;72726;44.842;37.556;2024-03-02T01:40:24;11.02;;;5.68;;
79015;SDS011;72726;44.842;37.556;2024-03-02T01:41:29;10.95;;;5.35;;
79015;SDS011;72726;44.842;37.556;2024-03-02T01:42:30;12.38;;;6.10;;
79015;SDS011;72726;44.842;37.556;2024-03-02T01:43:31;15.00;;;6.05;;
79015;SDS011;72726;44.842;37.556;2024-03-02T01:44:32;11.77;;;5.82;;
79015;SDS011;72726;44.842;37.556;2024-03-02T01:45:34;15.07;;;6.22;;
79015;SDS011;72726;44.842;37.556;2024-03-02T01:46:36;12.13;;;5.63;;
79015;SDS011;72726;44.842;37.556;2024-03-02T01:47:38;13.10;;;5.93;;
79015;SDS011;72726;44.842;37.556;2024-03-02T01:48:39;14.30;;;6.30;;
79015;SDS011;72726;44.842;37.556;2024-03-02T01:49:40;13.50;;;6.00;;
79015;SDS011;72726;44.842;37.556;2024-03-02T01:50:41;13.55;;;6.57;;
79015;SDS011;72726;44.842;37.556;2024-03-02T01:51:45;15.32;;;6.63;;
79015;SDS011;72726;44.842;37.556;2024-03-02T01:52:46;16.83;;;6.32;;
79015;SDS011;72726;44.842;37.556;2024-03-02T01:53:48;15.68;;;7.25;;
79015;SDS011;72726;44.842;37.556;2024-03-02T01:54:49;12.77;;;6.80;;
79015;SDS011;72726;44.842;37.556;2024-03-02T01:55:50;12.50;;;6.22;;
79015;SDS011;72726;44.842;37.556;2024-03-02T01:56:51;11.75;;;5.63;;
79015;SDS011;72726;44.842;37.556;2024-03-02T01:57:53;12.82;;;6.25;;
79015;SDS011;72726;44.842;37.556;2024-03-02T01:58:54;14.93;;;6.30;;
79015;SDS011;72726;44.842;37.556;2024-03-02T01:59:56;12.25;;;6.57;;
79015;SDS011;72726;44.842;37.556;2024-03-02T02:00:57;12.52;;;6.25;;
79015;SDS011;72726;44.842;37.556;2024-03-02T02:01:58;12.15;;;5.85;;
79015;SDS011;72726;44.842;37.556;2024-03-02T02:03:00;13.73;;;6.20;;
79015;SDS011;72726;44.842;37.556;2024-03-02T02:04:01;12.15;;;5.88;;
79015;SDS011;72726;44.842;37.556;2024-03-02T02:05:02;11.18;;;5.43;;
79015;SDS011;72726;44.842;37.556;2024-03-02T02:06:04;14.00;;;5.70;;
79015;SDS011;72726;44.842;37.556;2024-03-02T02:07:06;14.95;;;5.50;;
79015;SDS011;72726;44.842;37.556;2024-03-02T02:08:07;16.25;;;6.13;;
79015;SDS011;72726;44.842;37.556;2024-03-02T02:09:08;11.63;;;5.30;;
79015;SDS011;72726;44.842;37.556;2024-03-02T02:10:10;14.13;;;5.75;;
79015;SDS011;72726;44.842;37.556;2024-03-02T02:11:14;17.23;;;5.68;;
79015;SDS011;72726;44.842;37.556;2024-03-02T02:12:16;13.02;;;6.05;;
79015;SDS011;72726;44.842;37.556;2024-03-02T02:13:17;15.82;;;5.82;;
79015;SDS011;72726;44.842;37.556;2024-03-02T02:14:19;11.18;;;5.53;;
79015;SDS011;72726;44.842;37.556;2024-03-02T02:17:26;14.57;;;6.70;;
79015;SDS011;72726;44.842;37.556;2024-03-02T02:18:27;14.15;;;6.43;;
79015;SDS011;72726;44.842;37.556;2024-03-02T02:19:28;18.25;;;7.55;;
79015;SDS011;72726;44.842;37.556;2024-03-02T02:20:29;15.18;;;6.50;;
79015;SDS011;72726;44.842;37.556;2024-03-02T02:21:31;15.48;;;6.72;;
79015;SDS011;72726;44.842;37.556;2024-03-02T02:22:32;16.98;;;7.35;;
79015;SDS011;72726;44.842;37.556;2024-03-02T02:23:33;16.67;;;7.13;;
79015;SDS011;72726;44.842;37.556;2024-03-02T02:24:35;13.50;;;7.07;;
79015;SDS011;72726;44.842;37.556;2024-03-02T02:25:36;17.00;;;8.07;;
79015;SDS011;72726;44.842;37.556;2024-03-02T02:26:37;18.17;;;7.82;;
79015;SDS011;72726;44.842;37.556;2024-03-02T02:27:39;17.95;;;7.55;;
79015;SDS011;72726;44.842;37.556;2024-03-02T02:28:40;16.90;;;7.53;;
79015;SDS011;72726;44.842;37.556;2024-03-02T02:29:47;15.77;;;7.35;;
79015;SDS011;72726;44.842;37.556;2024-03-02T02:30:49;16.45;;;7.65;;
79015;SDS011;72726;44.842;37.556;2024-03-02T02:31:50;20.52;;;7.78;;
79015;SDS011;72726;44.842;37.556;2024-03-02T02:32:51;18.77;;;7.55;;
79015;SDS011;72726;44.842;37.556;2024-03-02T02:33:53;18.48;;;7.78;;
79015;SDS011;72726;44.842;37.556;2024-03-02T02:34:54;16.20;;;7.45;;
79015;SDS011;72726;44.842;37.556;2024-03-02T02:35:55;16.88;;;7.72;;
79015;SDS011;72726;44.842;37.556;2024-03-02T02:36:57;15.95;;;7.65;;
79015;SDS011;72726;44.842;37.556;2024-03-02T02:37:58;17.80;;;8.55;;
79015;SDS011;72726;44.842;37.556;2024-03-02T02:39:00;20.13;;;9.05;;
79015;SDS011;72726;44.842;37.556;2024-03-02T02:40:07;18.55;;;8.23;;
79015;SDS011;72726;44.842;37.556;2024-03-02T02:41:09;17.02;;;8.15;;
79015;SDS011;72726;44.842;37.556;2024-03-02T02:42:11;18.10;;;8.00;;
79015;SDS011;72726;44.842;37.556;2024-03-02T02:43:12;16.92;;;7.85;;
79015;SDS011;72726;44.842;37.556;2024-03-02T02:44:13;15.88;;;8.02;;
79015;SDS011;72726;44.842;37.556;2024-03-02T02:45:15;21.25;;;7.95;;
79015;SDS011;72726;44.842;37.556;2024-03-02T02:46:16;17.65;;;8.38;;
79015;SDS011;72726;44.842;37.556;2024-03-02T02:47:17;20.23;;;7.90;;
79015;SDS011;72726;44.842;37.556;2024-03-02T02:48:18;18.25;;;8.05;;
79015;SDS011;72726;44.842;37.556;2024-03-02T02:49:20;19.30;;;7.90;;
79015;SDS011;72726;44.842;37.556;2024-03-02T02:50:21;17.38;;;7.93;;
79015;SDS011;72726;44.842;37.556;2024-03-02T02:51:22;18.77;;;8.57;;
79015;SDS011;72726;44.842;37.556;2024-03-02T02:52:26;17.10;;;8.32;;
79015;SDS011;72726;44.842;37.556;2024-03-02T02:53:33;17.27;;;8.48;;
79015;SDS011;72726;44.842;37.556;2024-03-02T02:54:37;17.55;;;8.40;;
79015;SDS011;72726;44.842;37.556;2024-03-02T02:55:41;22.05;;;7.97;;
79015;SDS011;72726;44.842;37.556;2024-03-02T02:56:44;21.60;;;8.27;;
79015;SDS011;72726;44.842;37.556;2024-03-02T02:57:45;16.85;;;8.27;;
79015;SDS011;72726;44.842;37.556;2024-03-02T02:58:47;17.98;;;8.45;;
79015;SDS011;72726;44.842;37.556;2024-03-02T02:59:48;17.95;;;9.02;;
79015;SDS011;72726;44.842;37.556;2024-03-02T03:00:50;17.15;;;8.10;;
79015;SDS011;72726;44.842;37.556;2024-03-02T03:01:51;18.48;;;8.73;;
79015;SDS011;72726;44.842;37.556;2024-03-02T03:02:52;20.55;;;8.63;;
79015;SDS011;72726;44.842;37.556;2024-03-02T03:03:54;16.25;;;7.60;;
79015;SDS011;72726;44.842;37.556;2024-03-02T03:04:55;21.13;;;8.40;;
79015;SDS011;72726;44.842;37.556;2024-03-02T03:05:58;20.27;;;8.40;;
79015;SDS011;72726;44.842;37.556;2024-03-02T03:06:59;20.40;;;8.23;;
79015;SDS011;72726;44.842;37.556;2024-03-02T03:08:00;20.17;;;8.43;;
79015;SDS011;72726;44.842;37.556;2024-03-02T03:09:01;17.38;;;7.97;;
79015;SDS011;72726;44.842;37.556;2024-03-02T03:10:03;19.67;;;8.10;;
79015;SDS011;72726;44.842;37.556;2024-03-02T03:11:05;21.42;;;8.30;;
79015;SDS011;72726;44.842;37.556;2024-03-02T03:12:06;19.20;;;7.97;;
79015;SDS011;72726;44.842;37.556;2024-03-02T03:13:08;20.08;;;8.68;;
79015;SDS011;72726;44.842;37.556;2024-03-02T03:14:09;22.50;;;8.30;;
79015;SDS011;72726;44.842;37.556;2024-03-02T03:15:11;20.98;;;8.82;;
79015;SDS011;72726;44.842;37.556;2024-03-02T03:16:13;19.05;;;8.23;;
79015;SDS011;72726;44.842;37.556;2024-03-02T03:17:14;21.60;;;8.18;;
79015;SDS011;72726;44.842;37.556;2024-03-02T03:18:15;19.95;;;9.02;;
79015;SDS011;72726;44.842;37.556;2024-03-02T03:19:17;20.48;;;9.65;;
79015;SDS011;72726;44.842;37.556;2024-03-02T03:20:18;21.65;;;10.52;;
79015;SDS011;72726;44.842;37.556;2024-03-02T03:21:22;21.00;;;9.90;;
79015;SDS011;72726;44.842;37.556;2024-03-02T03:22:23;21.60;;;9.70;;
79015;SDS011;72726;44.842;37.556;2024-03-02T03:23:24;23.67;;;9.52;;
79015;SDS011;72726;44.842;37.556;2024-03-02T03:24:26;21.55;;;10.18;;
79015;SDS011;72726;44.842;37.556;2024-03-02T03:25:27;54.15;;;25.15;;
79015;SDS011;72726;44.842;37.556;2024-03-02T03:26:29;48.35;;;22.27;;
79015;SDS011;72726;44.842;37.556;2024-03-02T03:27:30;24.95;;;12.60;;
79015;SDS011;72726;44.842;37.556;2024-03-02T03:28:32;23.98;;;10.60;;
79015;SDS011;72726;44.842;37.556;2024-03-02T03:29:33;22.80;;;10.25;;
79015;SDS011;72726;44.842;37.556;2024-03-02T03:30:34;53.72;;;19.88;;
79015;SDS011;72726;44.842;37.556;2024-03-02T03:31:35;39.35;;;14.95;;
79015;SDS011;72726;44.842;37.556;2024-03-02T03:32:36;20.10;;;8.00;;
79015;SDS011;72726;44.842;37.556;2024-03-02T03:33:38;23.13;;;9.52;;
79015;SDS011;72726;44.842;37.556;2024-03-02T03:34:39;23.90;;;10.27;;
79015;SDS011;72726;44.842;37.556;2024-03-02T03:35:41;23.63;;;10.40;;
79015;SDS011;72726;44.842;37.556;2024-03-02T03:36:42;23.70;;;10.75;;
79015;SDS011;72726;44.842;37.556;2024-03-02T03:37:44;18.15;;;9.63;;
79015;SDS011;72726;44.842;37.556;2024-03-02T03:38:45;19.70;;;8.80;;
79015;SDS011;72726;44.842;37.556;2024-03-02T03:39:46;23.17;;;9.07;;
79015;SDS011;72726;44.842;37.556;2024-03-02T03:40:47;18.77;;;8.25;;
79015;SDS011;72726;44.842;37.556;2024-03-02T03:41:49;18.45;;;8.65;;
79015;SDS011;72726;44.842;37.556;2024-03-02T03:42:50;20.55;;;9.38;;
79015;SDS011;72726;44.842;37.556;2024-03-02T03:43:51;19.70;;;8.70;;
79015;SDS011;72726;44.842;37.556;2024-03-02T03:44:53;19.05;;;8.25;;
79015;SDS011;72726;44.842;37.556;2024-03-02T03:45:54;22.15;;;8.20;;
79015;SDS011;72726;44.842;37.556;2024-03-02T03:46:55;19.52;;;8.85;;
79015;SDS011;72726;44.842;37.556;2024-03-02T03:47:56;27.35;;;9.52;;
79015;SDS011;72726;44.842;37.556;2024-03-02T03:48:57;16.85;;;8.00;;
79015;SDS011;72726;44.842;37.556;2024-03-02T03:49:59;21.33;;;8.57;;
79015;SDS011;72726;44.842;37.556;2024-03-02T03:51:01;16.35;;;7.43;;
79015;SDS011;72726;44.842;37.556;2024-03-02T03:52:02;19.48;;;8.20;;
79015;SDS011;72726;44.842;37.556;2024-03-02T03:53:04;21.92;;;8.63;;
79015;SDS011;72726;44.842;37.556;2024-03-02T03:54:06;20.90;;;8.60;;
79015;SDS011;72726;44.842;37.556;2024-03-02T03:55:07;23.65;;;8.85;;
79015;SDS011;72726;44.842;37.556;2024-03-02T03:56:09;18.05;;;8.32;;
79015;SDS011;72726;44.842;37.556;2024-03-02T03:57:10;20.02;;;9.60;;
79015;SDS011;72726;44.842;37.556;2024-03-02T03:58:11;19.88;;;8.73;;
79015;SDS011;72726;44.842;37.556;2024-03-02T03:59:12;20.27;;;9.02;;
79015;SDS011;72726;44.842;37.556;2024-03-02T04:00:14;20.60;;;8.65;;
79015;SDS011;72726;44.842;37.556;2024-03-02T04:01:16;20.05;;;8.15;;
79015;SDS011;72726;44.842;37.556;2024-03-02T04:02:17;20.30;;;9.30;;
79015;SDS011;72726;44.842;37.556;2024-03-02T04:03:18;21.05;;;8.65;;
79015;SDS011;72726;44.842;37.556;2024-03-02T04:04:19;20.05;;;8.73;;
79015;SDS011;72726;44.842;37.556;2024-03-02T04:05:21;20.65;;;8.85;;
79015;SDS011;72726;44.842;37.556;2024-03-02T04:06:22;20.08;;;8.98;;
79015;SDS011;72726;44.842;37.556;2024-03-02T04:07:23;28.67;;;9.40;;
79015;SDS011;72726;44.842;37.556;2024-03-02T04:08:24;20.92;;;8.77;;
79015;SDS011;72726;44.842;37.556;2024-03-02T04:09:26;20.13;;;9.18;;
79015;SDS011;72726;44.842;37.556;2024-03-02T04:10:27;19.33;;;9.27;;
79015;SDS011;72726;44.842;37.556;2024-03-02T04:11:29;19.02;;;8.15;;
79015;SDS011;72726;44.842;37.556;2024-03-02T04:12:31;24.88;;;8.68;;
79015;SDS011;72726;44.842;37.556;2024-03-02T04:13:32;19.92;;;9.02;;
79015;SDS011;72726;44.842;37.556;2024-03-02T04:14:33;24.35;;;8.80;;
79015;SDS011;72726;44.842;37.556;2024-03-02T04:15:34;18.02;;;8.65;;
79015;SDS011;72726;44.842;37.556;2024-03-02T04:16:36;31.90;;;8.98;;
79015;SDS011;72726;44.842;37.556;2024-03-02T04:17:37;19.52;;;8.73;;
79015;SDS011;72726;44.842;37.556;2024-03-02T04:18:38;18.27;;;8.43;;
79015;SDS011;72726;44.842;37.556;2024-03-02T04:19:40;19.75;;;8.48;;
79015;SDS011;72726;44.842;37.556;2024-03-02T04:20:41;18.27;;;8.07;;
79015;SDS011;72726;44.842;37.556;2024-03-02T04:21:43;20.80;;;8.40;;
79015;SDS011;72726;44.842;37.556;2024-03-02T04:22:44;19.45;;;8.25;;
79015;SDS011;72726;44.842;37.556;2024-03-02T04:23:45;20.98;;;8.93;;
79015;SDS011;72726;44.842;37.556;2024-03-02T04:24:48;16.00;;;7.85;;
79015;SDS011;72726;44.842;37.556;2024-03-02T04:25:49;20.27;;;8.55;;
79015;SDS011;72726;44.842;37.556;2024-03-02T04:26:51;20.05;;;8.32;;
79015;SDS011;72726;44.842;37.556;2024-03-02T04:27:52;18.85;;;8.30;;
79015;SDS011;72726;44.842;37.556;2024-03-02T04:28:53;21.92;;;8.90;;
79015;SDS011;72726;44.842;37.556;2024-03-02T04:29:54;19.75;;;7.97;;
79015;SDS011;72726;44.842;37.556;2024-03-02T04:30:56;19.10;;;8.60;;
79015;SDS011;72726;44.842;37.556;2024-03-02T04:31:57;17.85;;;7.88;;
79015;SDS011;72726;44.842;37.556;2024-03-02T04:32:58;17.40;;;8.18;;
79015;SDS011;72726;44.842;37.556;2024-03-02T04:33:59;18.92;;;8.50;;
79015;SDS011;72726;44.842;37.556;2024-03-02T04:35:00;21.33;;;8.32;;
79015;SDS011;72726;44.842;37.556;2024-03-02T04:36:02;15.68;;;8.15;;
79015;SDS011;72726;44.842;37.556;2024-03-02T04:37:03;16.63;;;8.48;;
79015;SDS011;72726;44.842;37.556;2024-03-02T04:38:05;18.02;;;8.05;;
79015;SDS011;72726;44.842;37.556;2024-03-02T04:39:06;20.38;;;8.55;;
79015;SDS011;72726;44.842;37.556;2024-03-02T04:40:10;20.48;;;8.20;;
79015;SDS011;72726;44.842;37.556;2024-03-02T04:41:12;19.77;;;8.15;;
79015;SDS011;72726;44.842;37.556;2024-03-02T04:42:13;24.45;;;8.48;;
79015;SDS011;72726;44.842;37.556;2024-03-02T04:43:20;17.95;;;9.05;;
79015;SDS011;72726;44.842;37.556;2024-03-02T04:44:21;18.83;;;9.27;;
79015;SDS011;72726;44.842;37.556;2024-03-02T04:45:23;17.33;;;8.77;;
79015;SDS011;72726;44.842;37.556;2024-03-02T04:46:24;22.50;;;9.35;;
79015;SDS011;72726;44.842;37.556;2024-03-02T04:47:26;18.95;;;8.10;;
79015;SDS011;72726;44.842;37.556;2024-03-02T04:48:27;21.95;;;9.32;;
79015;SDS011;72726;44.842;37.556;2024-03-02T04:49:29;23.20;;;8.50;;
79015;SDS011;72726;44.842;37.556;2024-03-02T04:50:30;21.58;;;8.85;;
79015;SDS011;72726;44.842;37.556;2024-03-02T04:51:32;22.15;;;8.52;;
79015;SDS011;72726;44.842;37.556;2024-03-02T04:52:33;21.60;;;9.02;;
79015;SDS011;72726;44.842;37.556;2024-03-02T04:53:34;21.83;;;9.23;;
79015;SDS011;72726;44.842;37.556;2024-03-02T04:54:35;18.85;;;8.60;;
79015;SDS011;72726;44.842;37.556;2024-03-02T04:55:57;22.38;;;8.80;;
79015;SDS011;72726;44.842;37.556;2024-03-02T04:57:24;19.65;;;8.63;;
79015;SDS011;72726;44.842;37.556;2024-03-02T04:58:25;17.20;;;8.60;;
79015;SDS011;72726;44.842;37.556;2024-03-02T04:59:27;19.92;;;8.57;;
79015;SDS011;72726;44.842;37.556;2024-03-02T05:00:28;23.42;;;9.07;;
79015;SDS011;72726;44.842;37.556;2024-03-02T05:01:29;19.70;;;8.85;;
79015;SDS011;72726;44.842;37.556;2024-03-02T05:02:31;19.83;;;9.23;;
79015;SDS011;72726;44.842;37.556;2024-03-02T05:03:32;18.95;;;8.27;;
79015;SDS011;72726;44.842;37.556;2024-03-02T05:04:35;19.10;;;8.07;;
79015;SDS011;72726;44.842;37.556;2024-03-02T05:05:36;17.70;;;8.95;;
79015;SDS011;72726;44.842;37.556;2024-03-02T05:06:39;19.27;;;8.70;;
79015;SDS011;72726;44.842;37.556;2024-03-02T05:07:44;24.33;;;8.05;;
79015;SDS011;72726;44.842;37.556;2024-03-02T05:08:50;16.77;;;8.10;;
79015;SDS011;72726;44.842;37.556;2024-03-02T05:09:51;18.08;;;8.05;;
79015;SDS011;72726;44.842;37.556;2024-03-02T05:10:53;17.10;;;7.93;;
79015;SDS011;72726;44.842;37.556;2024-03-02T05:11:54;17.40;;;8.10;;
79015;SDS011;72726;44.842;37.556;2024-03-02T05:13:14;19.98;;;8.63;;
79015;SDS011;72726;44.842;37.556;2024-03-02T05:14:15;22.88;;;8.18;;
79015;SDS011;72726;44.842;37.556;2024-03-02T05:15:16;17.38;;;7.50;;
79015;SDS011;72726;44.842;37.556;2024-03-02T05:16:17;21.10;;;8.68;;
79015;SDS011;72726;44.842;37.556;2024-03-02T05:17:19;18.70;;;8.07;;
79015;SDS011;72726;44.842;37.556;2024-03-02T05:18:20;22.05;;;8.48;;
79015;SDS011;72726;44.842;37.556;2024-03-02T05:19:23;18.38;;;8.65;;
79015;SDS011;72726;44.842;37.556;2024-03-02T05:20:26;22.27;;;8.48;;
79015;SDS011;72726;44.842;37.556;2024-03-02T05:21:27;17.80;;;8.60;;
79015;SDS011;72726;44.842;37.556;2024-03-02T05:22:28;19.73;;;8.85;;
79015;SDS011;72726;44.842;37.556;2024-03-02T05:23:29;29.15;;;8.43;;
79015;SDS011;72726;44.842;37.556;2024-03-02T05:24:37;23.88;;;9.25;;
79015;SDS011;72726;44.842;37.556;2024-03-02T05:25:38;18.63;;;8.30;;
79015;SDS011;72726;44.842;37.556;2024-03-02T05:26:40;18.80;;;8.23;;
79015;SDS011;72726;44.842;37.556;2024-03-02T05:27:41;19.67;;;8.65;;
79015;SDS011;72726;44.842;37.556;2024-03-02T05:28:42;22.10;;;8.80;;
79015;SDS011;72726;44.842;37.556;2024-03-02T05:29:43;17.98;;;8.57;;
79015;SDS011;72726;44.842;37.556;2024-03-02T05:30:45;21.48;;;8.20;;
79015;SDS011;72726;44.842;37.556;2024-03-02T05:31:47;22.35;;;8.20;;
79015;SDS011;72726;44.842;37.556;2024-03-02T05:32:49;19.95;;;9.40;;
79015;SDS011;72726;44.842;37.556;2024-03-02T05:33:50;21.15;;;9.40;;
79015;SDS011;72726;44.842;37.556;2024-03-02T05:34:53;22.27;;;9.80;;
79015;SDS011;72726;44.842;37.556;2024-03-02T05:35:55;18.80;;;8.13;;
79015;SDS011;72726;44.842;37.556;2024-03-02T05:36:57;17.27;;;8.27;;
79015;SDS011;72726;44.842;37.556;2024-03-02T05:37:58;22.55;;;9.15;;
79015;SDS011;72726;44.842;37.556;2024-03-02T05:39:00;21.40;;;8.95;;
79015;SDS011;72726;44.842;37.556;2024-03-02T05:40:01;21.27;;;8.75;;
79015;SDS011;72726;44.842;37.556;2024-03-02T05:41:03;20.88;;;9.07;;
79015;SDS011;72726;44.842;37.556;2024-03-02T05:42:05;22.60;;;9.30;;
79015;SDS011;72726;44.842;37.556;2024-03-02T05:43:06;18.98;;;8.65;;
79015;SDS011;72726;44.842;37.556;2024-03-02T05:44:08;21.75;;;9.25;;
79015;SDS011;72726;44.842;37.556;2024-03-02T05:45:09;21.05;;;8.95;;
79015;SDS011;72726;44.842;37.556;2024-03-02T05:46:11;21.35;;;8.73;;
79015;SDS011;72726;44.842;37.556;2024-03-02T05:47:12;17.75;;;8.93;;
79015;SDS011;72726;44.842;37.556;2024-03-02T05:48:19;20.20;;;8.75;;
79015;SDS011;72726;44.842;37.556;2024-03-02T05:49:20;19.35;;;8.43;;
79015;SDS011;72726;44.842;37.556;2024-03-02T05:50:21;24.85;;;10.68;;
79015;SDS011;72726;44.842;37.556;2024-03-02T05:51:28;22.65;;;9.27;;
79015;SDS011;72726;44.842;37.556;2024-03-02T05:52:30;20.60;;;9.70;;
79015;SDS011;72726;44.842;37.556;2024-03-02T05:53:31;20.95;;;10.35;;
79015;SDS011;72726;44.842;37.556;2024-03-02T05:54:32;32.88;;;14.70;;
79015;SDS011;72726;44.842;37.556;2024-03-02T05:55:34;26.10;;;12.80;;
79015;SDS011;72726;44.842;37.556;2024-03-02T05:56:35;30.27;;;12.50;;
79015;SDS011;72726;44.842;37.556;2024-03-02T05:57:36;25.33;;;12.65;;
79015;SDS011;72726;44.842;37.556;2024-03-02T05:58:43;25.83;;;11.45;;
79015;SDS011;72726;44.842;37.556;2024-03-02T06:00:04;24.10;;;9.95;;
79015;SDS011;72726;44.842;37.556;2024-03-02T06:01:13;18.65;;;9.45;;
79015;SDS011;72726;44.842;37.556;2024-03-02T06:02:14;21.83;;;9.35;;
79015;SDS011;72726;44.842;37.556;2024-03-02T06:03:15;21.70;;;10.07;;
79015;SDS011;72726;44.842;37.556;2024-03-02T06:04:17;22.92;;;11.23;;
79015;SDS011;72726;44.842;37.556;2024-03-02T06:05:18;23.42;;;9.75;;
79015;SDS011;72726;44.842;37.556;2024-03-02T06:06:19;19.45;;;8.32;;
79015;SDS011;72726;44.842;37.556;2024-03-02T06:07:21;18.85;;;8.23;;
79015;SDS011;72726;44.842;37.556;2024-03-02T06:08:23;19.63;;;8.35;;